Harbor Emperor — WCY6430 — position and weather

sailwx.info

Track history (hours):
 
Tides and Currents Weather Stations Pressure Air Temp Water Temp Dewpoint Dewpoint Depression Visibility Wind Speed Wind Dir Waves Ship Positions

Harbor Emperor

Owner: BLUE & GOLD FLEET, SAN FRANCISCO, CA. More information available from US FCC via Universal Licensing System and Coast Guard Vessel Documentation Center.

Last reported at 2016-May-25 04:33 UTC. Time now 2016-May-25 14:56 UTC.
Position N 37°49' W 122°25'.

Length 27 m.

Type: Passenger vessel. MMSI: 366985270.

Date/timePositionNaut miles runAvg speedWind from/ knotsBaromVisibWave heightAir tempDewpointWater temp
2016-May-25 04:33N 37°49' W 122°25'3 3.2
2016-May-25 03:33N 37°52' W 122°25'3 3.4
2016-May-25 02:33N 37°50' W 122°28'3 3.2
2016-May-25 01:33N 37°49' W 122°25'0 0.0
2016-May-25 00:33N 37°49' W 122°25'0 0.0
2016-May-24 23:33N 37°49' W 122°25'0 0.0
2016-May-24 22:33N 37°49' W 122°25'0 0.0
2016-May-24 21:33N 37°49' W 122°25'0 0.0
2016-May-24 20:33N 37°49' W 122°25'0 0.0
2016-May-24 19:33N 37°49' W 122°25'0 0.0
2016-May-24 18:33N 37°49' W 122°25'0 0.0
2016-May-24 17:33N 37°49' W 122°25'0 0.0
2016-May-24 16:33N 37°49' W 122°25'0 0.0
2016-May-24 15:33N 37°49' W 122°25'0 0.0
2016-May-24 14:33N 37°49' W 122°25'0 0.0
2016-May-24 13:33N 37°49' W 122°25'0 0.0
2016-May-24 12:33N 37°49' W 122°25'0 0.0
2016-May-24 11:34N 37°49' W 122°25'0 0.0
2016-May-24 10:33N 37°49' W 122°25'0 0.0
2016-May-24 09:33N 37°49' W 122°25'0 0.0
2016-May-24 08:33N 37°49' W 122°25'0 0.0
2016-May-24 07:33N 37°49' W 122°25'0 0.0
2016-May-24 06:33N 37°49' W 122°25'0 0.0
2016-May-24 05:33N 37°49' W 122°25'0 0.0
2016-May-24 04:33N 37°49' W 122°25'0 0.0
2016-May-24 03:33N 37°49' W 122°25'2 2.0
2016-May-24 02:33N 37°50' W 122°26'1 1.3
2016-May-24 01:33N 37°51' W 122°28'1 1.0
2016-May-24 00:33N 37°51' W 122°29'4 4.2
2016-May-23 23:33N 37°49' W 122°25'4 3.9
2016-May-23 22:33N 37°51' W 122°28'3 2.9
2016-May-23 21:33N 37°49' W 122°26'1 1.0
2016-May-23 20:33N 37°49' W 122°25'2 2.4
2016-May-23 19:33N 37°50' W 122°27'2 1.8
2016-May-23 18:33N 37°51' W 122°29'4 4.3
2016-May-23 17:33N 37°49' W 122°25'0 0.0
2016-May-23 01:33N 37°49' W 122°25'0 0.2
2016-May-23 00:33N 37°49' W 122°25'4 3.7
2016-May-22 23:34N 37°51' W 122°28'4 3.6
2016-May-22 22:33N 37°49' W 122°25'4 3.8
2016-May-22 21:33N 37°52' W 122°26'4 3.8
2016-May-22 20:33N 37°49' W 122°25'3 2.7
2016-May-22 19:33N 37°51' W 122°27'2 2.0
2016-May-22 18:33N 37°49' W 122°25'3 2.8
2016-May-22 17:29N 37°52' W 122°26'5 5.1
2016-May-22 16:34N 37°48' W 122°24'1 1.1
2016-May-22 15:31N 37°49' W 122°25'0 0.0
2016-May-22 14:31N 37°49' W 122°25'0 0.0
2016-May-22 13:31N 37°49' W 122°25'0 0.0
2016-May-22 12:31N 37°49' W 122°25'0 0.0
2016-May-22 11:31N 37°49' W 122°25'0 0.0
2016-May-22 10:31N 37°49' W 122°25'0 0.0
2016-May-22 09:31N 37°49' W 122°25'0 0.0
2016-May-22 08:31N 37°49' W 122°25'0 0.0
2016-May-22 07:31N 37°49' W 122°25'0 0.0
2016-May-22 06:31N 37°49' W 122°25'0 0.0
2016-May-22 05:31N 37°49' W 122°25'0 0.0
2016-May-22 04:31N 37°49' W 122°25'0 0.0
2016-May-22 03:31N 37°49' W 122°25'0 0.0
2016-May-22 02:31N 37°49' W 122°25'0 0.2
2016-May-22 01:34N 37°49' W 122°25'2 2.2
2016-May-22 00:34N 37°50' W 122°27'2 1.9
2016-May-21 23:33N 37°51' W 122°29'3 2.7
2016-May-21 22:33N 37°50' W 122°26'3 2.9
2016-May-21 21:33N 37°52' W 122°27'4 4.2
2016-May-21 20:32N 37°49' W 122°25'2 1.7
2016-May-21 19:33N 37°50' W 122°26'1 0.6
2016-May-21 18:34N 37°49' W 122°25'3 3.1
2016-May-21 17:33N 37°52' W 122°27'4 4.2
2016-May-21 16:33N 37°49' W 122°24'0 0.3
2016-May-21 15:33N 37°49' W 122°25'0 0.0
2016-May-21 14:29N 37°49' W 122°25'0 0.0
2016-May-21 13:32N 37°49' W 122°25'0 0.0
2016-May-21 12:29N 37°49' W 122°25'0 0.0
2016-May-21 11:32N 37°49' W 122°25'0 0.0
2016-May-21 10:29N 37°49' W 122°25'0 0.0
2016-May-21 09:29N 37°49' W 122°25'0 0.0
2016-May-21 08:32N 37°49' W 122°25'0 0.0
2016-May-21 07:32N 37°49' W 122°25'0 0.0
2016-May-21 06:32N 37°49' W 122°25'0 0.0
2016-May-21 05:29N 37°49' W 122°25'0 0.0
2016-May-21 04:29N 37°49' W 122°25'0 0.0
2016-May-21 03:32N 37°49' W 122°25'0 0.0
2016-May-21 02:33N 37°49' W 122°25'0 0.0
2016-May-21 01:33N 37°49' W 122°25'0 0.0
2016-May-21 00:33N 37°49' W 122°25'1 1.4
2016-May-20 23:33N 37°50' W 122°25'1 1.4
2016-May-20 22:33N 37°49' W 122°25'3 2.6
2016-May-20 21:33N 37°49' W 122°28'3 2.5
2016-May-20 20:32N 37°49' W 122°25'2 2.5
2016-May-20 19:33N 37°49' W 122°28'3 2.8
2016-May-20 18:34N 37°49' W 122°24'0 0.4
2016-May-20 17:31N 37°49' W 122°25'0 0.0
2016-May-20 01:17N 37°49' W 122°25'0 0.2
2016-May-20 00:33N 37°49' W 122°25'1 1.1
2016-May-19 23:34N 37°50' W 122°25'1 1.2
2016-May-19 22:32N 37°49' W 122°25'3 2.6
2016-May-19 21:33N 37°49' W 122°28'3 2.3
2016-May-19 20:25N 37°49' W 122°25'3 3.0
2016-May-19 19:33N 37°49' W 122°28'3 2.9
2016-May-19 18:33N 37°49' W 122°24'0 0.3
2016-May-19 17:29N 37°49' W 122°25'0 0.0
2016-May-19 01:23N 37°49' W 122°25'0 0.1
2016-May-19 00:33N 37°49' W 122°25'1 1.1
2016-May-18 23:33N 37°50' W 122°25'1 1.1
2016-May-18 22:33N 37°49' W 122°25'3 2.6
2016-May-18 21:34N 37°49' W 122°28'3 2.5
2016-May-18 20:32N 37°49' W 122°25'3 3.0
2016-May-18 19:33N 37°49' W 122°28'3 3.1
2016-May-18 18:33N 37°49' W 122°24'0 0.4
2016-May-18 17:28N 37°49' W 122°25'0 0.0
2016-May-18 01:23N 37°49' W 122°25'0 0.2
2016-May-18 00:34N 37°49' W 122°25'1 1.2
2016-May-17 23:33N 37°50' W 122°25'1 1.3
2016-May-17 22:31N 37°49' W 122°25'3 2.9
2016-May-17 21:33N 37°49' W 122°28'3 2.8
2016-May-17 20:33N 37°49' W 122°25'3 2.7
2016-May-17 19:33N 37°49' W 122°28'3 2.9
2016-May-17 18:33N 37°49' W 122°24'0 0.3
2016-May-17 17:28N 37°49' W 122°25'0 0.0
2016-May-17 16:22N 37°49' W 122°25'0 0.0
2016-May-17 15:32N 37°49' W 122°25'0 0.0
2016-May-17 14:32N 37°49' W 122°25'0 0.0
2016-May-17 13:29N 37°49' W 122°25'0 0.0
2016-May-17 12:28N 37°49' W 122°25'0 0.0
2016-May-17 11:29N 37°49' W 122°25'0 0.0
2016-May-17 10:32N 37°49' W 122°25'0 0.0
2016-May-17 09:31N 37°49' W 122°25'0 0.0
2016-May-17 08:32N 37°49' W 122°25'0 0.0
2016-May-17 07:32N 37°49' W 122°25'0 0.0
2016-May-17 06:28N 37°49' W 122°25'0 0.0
2016-May-17 05:28N 37°49' W 122°25'0 0.0
2016-May-17 04:28N 37°49' W 122°25'0 0.0
2016-May-17 03:28N 37°49' W 122°25'0 0.0
2016-May-17 02:28N 37°49' W 122°25'0 0.0
2016-May-17 01:31N 37°49' W 122°25'0 0.1
2016-May-17 00:33N 37°49' W 122°25'1 1.2
2016-May-16 23:33N 37°50' W 122°25'1 1.2
2016-May-16 22:25N 37°49' W 122°25'3 3.2
2016-May-16 21:34N 37°49' W 122°28'3 2.7
2016-May-16 20:32N 37°49' W 122°25'3 3.2
2016-May-16 19:33N 37°49' W 122°29'3 3.2
2016-May-16 18:33N 37°49' W 122°25'1 0.0
2016-May-16 01:33N 37°49' W 122°25'3 3.0
2016-May-16 00:34N 37°51' W 122°27'2 1.6
2016-May-15 23:33N 37°51' W 122°29'3 3.1
2016-May-15 22:33N 37°49' W 122°26'3 3.2
2016-May-15 21:33N 37°52' W 122°27'4 4.3
2016-May-15 20:33N 37°49' W 122°25'2 1.6
2016-May-15 19:34N 37°50' W 122°26'0 0.3
2016-May-15 18:34N 37°50' W 122°26'3 2.5
2016-May-15 17:33N 37°52' W 122°27'4 4.2
2016-May-15 16:33N 37°49' W 122°25'  
Track history (hours):
 
Tides and Currents Weather Stations Pressure Air Temp Water Temp Dewpoint Dewpoint Depression Visibility Wind Speed Wind Dir Waves Ship Positions

Harbor Emperor

Owner: BLUE & GOLD FLEET, SAN FRANCISCO, CA. More information available from US FCC via Universal Licensing System and Coast Guard Vessel Documentation Center.

Last reported at 2016-May-25 04:33 UTC. Time now 2016-May-25 14:56 UTC.
Position N 37°49' W 122°25'.

Length 27 m.

Type: Passenger vessel. MMSI: 366985270.

Date/timePositionNaut miles runAvg speedWind from/ knotsBaromVisibWave heightAir tempDewpointWater temp
2016-May-25 04:33N 37°49' W 122°25'3 3.2
2016-May-25 03:33N 37°52' W 122°25'3 3.4
2016-May-25 02:33N 37°50' W 122°28'3 3.2
2016-May-25 01:33N 37°49' W 122°25'0 0.0
2016-May-25 00:33N 37°49' W 122°25'0 0.0
2016-May-24 23:33N 37°49' W 122°25'0 0.0
2016-May-24 22:33N 37°49' W 122°25'0 0.0
2016-May-24 21:33N 37°49' W 122°25'0 0.0
2016-May-24 20:33N 37°49' W 122°25'0 0.0
2016-May-24 19:33N 37°49' W 122°25'0 0.0
2016-May-24 18:33N 37°49' W 122°25'0 0.0
2016-May-24 17:33N 37°49' W 122°25'0 0.0
2016-May-24 16:33N 37°49' W 122°25'0 0.0
2016-May-24 15:33N 37°49' W 122°25'0 0.0
2016-May-24 14:33N 37°49' W 122°25'0 0.0
2016-May-24 13:33N 37°49' W 122°25'0 0.0
2016-May-24 12:33N 37°49' W 122°25'0 0.0
2016-May-24 11:34N 37°49' W 122°25'0 0.0
2016-May-24 10:33N 37°49' W 122°25'0 0.0
2016-May-24 09:33N 37°49' W 122°25'0 0.0
2016-May-24 08:33N 37°49' W 122°25'0 0.0
2016-May-24 07:33N 37°49' W 122°25'0 0.0
2016-May-24 06:33N 37°49' W 122°25'0 0.0
2016-May-24 05:33N 37°49' W 122°25'0 0.0
2016-May-24 04:33N 37°49' W 122°25'0 0.0
2016-May-24 03:33N 37°49' W 122°25'2 2.0
2016-May-24 02:33N 37°50' W 122°26'1 1.3
2016-May-24 01:33N 37°51' W 122°28'1 1.0
2016-May-24 00:33N 37°51' W 122°29'4 4.2
2016-May-23 23:33N 37°49' W 122°25'4 3.9
2016-May-23 22:33N 37°51' W 122°28'3 2.9
2016-May-23 21:33N 37°49' W 122°26'1 1.0
2016-May-23 20:33N 37°49' W 122°25'2 2.4
2016-May-23 19:33N 37°50' W 122°27'2 1.8
2016-May-23 18:33N 37°51' W 122°29'4 4.3
2016-May-23 17:33N 37°49' W 122°25'0 0.0
2016-May-23 01:33N 37°49' W 122°25'0 0.2
2016-May-23 00:33N 37°49' W 122°25'4 3.7
2016-May-22 23:34N 37°51' W 122°28'4 3.6
2016-May-22 22:33N 37°49' W 122°25'4 3.8
2016-May-22 21:33N 37°52' W 122°26'4 3.8
2016-May-22 20:33N 37°49' W 122°25'3 2.7
2016-May-22 19:33N 37°51' W 122°27'2 2.0
2016-May-22 18:33N 37°49' W 122°25'3 2.8
2016-May-22 17:29N 37°52' W 122°26'5 5.1
2016-May-22 16:34N 37°48' W 122°24'1 1.1
2016-May-22 15:31N 37°49' W 122°25'0 0.0
2016-May-22 14:31N 37°49' W 122°25'0 0.0
2016-May-22 13:31N 37°49' W 122°25'0 0.0
2016-May-22 12:31N 37°49' W 122°25'0 0.0
2016-May-22 11:31N 37°49' W 122°25'0 0.0
2016-May-22 10:31N 37°49' W 122°25'0 0.0
2016-May-22 09:31N 37°49' W 122°25'0 0.0
2016-May-22 08:31N 37°49' W 122°25'0 0.0
2016-May-22 07:31N 37°49' W 122°25'0 0.0
2016-May-22 06:31N 37°49' W 122°25'0 0.0
2016-May-22 05:31N 37°49' W 122°25'0 0.0
2016-May-22 04:31N 37°49' W 122°25'0 0.0
2016-May-22 03:31N 37°49' W 122°25'0 0.0
2016-May-22 02:31N 37°49' W 122°25'0 0.2
2016-May-22 01:34N 37°49' W 122°25'2 2.2
2016-May-22 00:34N 37°50' W 122°27'2 1.9
2016-May-21 23:33N 37°51' W 122°29'3 2.7
2016-May-21 22:33N 37°50' W 122°26'3 2.9
2016-May-21 21:33N 37°52' W 122°27'4 4.2
2016-May-21 20:32N 37°49' W 122°25'2 1.7
2016-May-21 19:33N 37°50' W 122°26'1 0.6
2016-May-21 18:34N 37°49' W 122°25'3 3.1
2016-May-21 17:33N 37°52' W 122°27'4 4.2
2016-May-21 16:33N 37°49' W 122°24'0 0.3
2016-May-21 15:33N 37°49' W 122°25'0 0.0
2016-May-21 14:29N 37°49' W 122°25'0 0.0
2016-May-21 13:32N 37°49' W 122°25'0 0.0
2016-May-21 12:29N 37°49' W 122°25'0 0.0
2016-May-21 11:32N 37°49' W 122°25'0 0.0
2016-May-21 10:29N 37°49' W 122°25'0 0.0
2016-May-21 09:29N 37°49' W 122°25'0 0.0
2016-May-21 08:32N 37°49' W 122°25'0 0.0
2016-May-21 07:32N 37°49' W 122°25'0 0.0
2016-May-21 06:32N 37°49' W 122°25'0 0.0
2016-May-21 05:29N 37°49' W 122°25'0 0.0
2016-May-21 04:29N 37°49' W 122°25'0 0.0
2016-May-21 03:32N 37°49' W 122°25'0 0.0
2016-May-21 02:33N 37°49' W 122°25'0 0.0
2016-May-21 01:33N 37°49' W 122°25'0 0.0
2016-May-21 00:33N 37°49' W 122°25'1 1.4
2016-May-20 23:33N 37°50' W 122°25'1 1.4
2016-May-20 22:33N 37°49' W 122°25'3 2.6
2016-May-20 21:33N 37°49' W 122°28'3 2.5
2016-May-20 20:32N 37°49' W 122°25'2 2.5
2016-May-20 19:33N 37°49' W 122°28'3 2.8
2016-May-20 18:34N 37°49' W 122°24'0 0.4
2016-May-20 17:31N 37°49' W 122°25'0 0.0
2016-May-20 01:17N 37°49' W 122°25'0 0.2
2016-May-20 00:33N 37°49' W 122°25'1 1.1
2016-May-19 23:34N 37°50' W 122°25'1 1.2
2016-May-19 22:32N 37°49' W 122°25'3 2.6
2016-May-19 21:33N 37°49' W 122°28'3 2.3
2016-May-19 20:25N 37°49' W 122°25'3 3.0
2016-May-19 19:33N 37°49' W 122°28'3 2.9
2016-May-19 18:33N 37°49' W 122°24'0 0.3
2016-May-19 17:29N 37°49' W 122°25'0 0.0
2016-May-19 01:23N 37°49' W 122°25'0 0.1
2016-May-19 00:33N 37°49' W 122°25'1 1.1
2016-May-18 23:33N 37°50' W 122°25'1 1.1
2016-May-18 22:33N 37°49' W 122°25'3 2.6
2016-May-18 21:34N 37°49' W 122°28'3 2.5
2016-May-18 20:32N 37°49' W 122°25'3 3.0
2016-May-18 19:33N 37°49' W 122°28'3 3.1
2016-May-18 18:33N 37°49' W 122°24'0 0.4
2016-May-18 17:28N 37°49' W 122°25'0 0.0
2016-May-18 01:23N 37°49' W 122°25'0 0.2
2016-May-18 00:34N 37°49' W 122°25'1 1.2
2016-May-17 23:33N 37°50' W 122°25'1 1.3
2016-May-17 22:31N 37°49' W 122°25'3 2.9
2016-May-17 21:33N 37°49' W 122°28'3 2.8
2016-May-17 20:33N 37°49' W 122°25'3 2.7
2016-May-17 19:33N 37°49' W 122°28'3 2.9
2016-May-17 18:33N 37°49' W 122°24'0 0.3
2016-May-17 17:28N 37°49' W 122°25'0 0.0
2016-May-17 16:22N 37°49' W 122°25'0 0.0
2016-May-17 15:32N 37°49' W 122°25'0 0.0
2016-May-17 14:32N 37°49' W 122°25'0 0.0
2016-May-17 13:29N 37°49' W 122°25'0 0.0
2016-May-17 12:28N 37°49' W 122°25'0 0.0
2016-May-17 11:29N 37°49' W 122°25'0 0.0
2016-May-17 10:32N 37°49' W 122°25'0 0.0
2016-May-17 09:31N 37°49' W 122°25'0 0.0
2016-May-17 08:32N 37°49' W 122°25'0 0.0
2016-May-17 07:32N 37°49' W 122°25'0 0.0
2016-May-17 06:28N 37°49' W 122°25'0 0.0
2016-May-17 05:28N 37°49' W 122°25'0 0.0
2016-May-17 04:28N 37°49' W 122°25'0 0.0
2016-May-17 03:28N 37°49' W 122°25'0 0.0
2016-May-17 02:28N 37°49' W 122°25'0 0.0
2016-May-17 01:31N 37°49' W 122°25'0 0.1
2016-May-17 00:33N 37°49' W 122°25'1 1.2
2016-May-16 23:33N 37°50' W 122°25'1 1.2
2016-May-16 22:25N 37°49' W 122°25'3 3.2
2016-May-16 21:34N 37°49' W 122°28'3 2.7
2016-May-16 20:32N 37°49' W 122°25'3 3.2
2016-May-16 19:33N 37°49' W 122°29'3 3.2
2016-May-16 18:33N 37°49' W 122°25'1 0.0
2016-May-16 01:33N 37°49' W 122°25'3 3.0
2016-May-16 00:34N 37°51' W 122°27'2 1.6
2016-May-15 23:33N 37°51' W 122°29'3 3.1
2016-May-15 22:33N 37°49' W 122°26'3 3.2
2016-May-15 21:33N 37°52' W 122°27'4 4.3
2016-May-15 20:33N 37°49' W 122°25'2 1.6
2016-May-15 19:34N 37°50' W 122°26'0 0.3
2016-May-15 18:34N 37°50' W 122°26'3 2.5
2016-May-15 17:33N 37°52' W 122°27'4 4.2
2016-May-15 16:33N 37°49' W 122°25'  

Dump ship's entire track history